Time;durP1;ratioP1;P1;durP2;ratioP2;P2;SDS_P1;SDS_P2;PMS_P1;PMS_P2;Temp;Humidity;BMP_temperature;BMP_pressure;BME280_temperature;BME280_humidity;BME280_pressure;Samples;Min_cycle;Max_cycle;Signal;HPM_P1;HPM_P2
2023/06/14 00:00:57;;;;;;;;;;;19.90;51.00;;;;;;6049002;23;20451;-96
2023/06/14 00:03:24;;;;;;;;;;;19.90;51.10;;;;;;6073018;23;20315;-95
2023/06/14 00:05:52;;;;;;;;;;;19.90;51.00;;;;;;6072592;23;19906;-95
2023/06/14 00:08:22;;;;;;;;;;;20.00;51.10;;;;;;6049271;23;19969;-93
2023/06/14 00:10:53;;;;;;;;;;;19.90;51.00;;;;;;6073369;23;20231;-94
2023/06/14 00:13:22;;;;;;;;;;;19.90;51.00;;;;;;6072935;23;20208;-94
2023/06/14 00:16:00;;;;;;;;;;;20.20;51.10;;;;;;6048915;23;19914;-96
2023/06/14 00:18:29;;;;;;;;;;;20.10;51.10;;;;;;6073111;23;19984;-95
2023/06/14 00:20:58;;;;;;;;;;;19.90;51.10;;;;;;6072812;23;19916;-95
2023/06/14 00:23:33;;;;;;;;;;;19.80;51.00;;;;;;6072909;23;19910;-95
2023/06/14 00:25:58;;;;;;;;;;;19.90;51.10;;;;;;6048519;23;20311;-95
2023/06/14 00:28:27;;;;;;;;;;;19.80;51.00;;;;;;6072713;23;19933;-94
2023/06/14 00:31:02;;;;;;;;;;;19.80;51.00;;;;;;6072975;23;19905;-95
2023/06/14 00:33:28;;;;;;;;;;;20.00;51.20;;;;;;6095386;23;19913;-94
2023/06/14 00:36:00;;;;;;;;;;;19.80;51.10;;;;;;6070904;23;20243;-95
2023/06/14 00:38:25;;;;;;;;;;;19.80;51.10;;;;;;6072608;23;19910;-95
2023/06/14 00:40:51;;;;;;;;;;;19.80;51.20;;;;;;6096275;23;19992;-94
2023/06/14 00:43:17;;;;;;;;;;;19.80;51.10;;;;;;6073260;23;20000;-94
2023/06/14 00:46:04;;;;;;;;;;;19.80;51.10;;;;;;6096153;23;19912;-95
2023/06/14 00:48:37;;;;;;;;;;;19.80;51.20;;;;;;6096582;23;19980;-94
2023/06/14 00:51:08;;;;;;;;;;;19.80;51.10;;;;;;6072491;23;19910;-94
2023/06/14 00:53:39;;;;;;;;;;;19.80;51.20;;;;;;6073146;23;19917;-94
2023/06/14 00:56:08;;;;;;;;;;;19.80;51.20;;;;;;6073056;23;19963;-95
2023/06/14 00:58:37;;;;;;;;;;;19.80;51.20;;;;;;6096109;23;20319;-94
2023/06/14 01:01:03;;;;;;;;;;;19.70;51.20;;;;;;6073239;23;19916;-94
2023/06/14 01:03:52;;;;;;;;;;;19.70;51.20;;;;;;6096138;23;19910;-95
2023/06/14 01:06:32;;;;;;;;;;;19.70;51.20;;;;;;6096128;23;20216;-93
2023/06/14 01:09:17;;;;;;;;;;;19.70;51.20;;;;;;6096498;23;19906;-95
2023/06/14 01:12:01;;;;;;;;;;;19.70;51.20;;;;;;6096323;23;20334;-95
2023/06/14 01:14:33;;;;;;;;;;;19.70;51.20;;;;;;6096088;23;19964;-95
2023/06/14 01:17:00;;;;;;;;;;;19.70;51.30;;;;;;6073397;23;19916;-95
2023/06/14 01:19:31;;;;;;;;;;;19.70;51.20;;;;;;6072886;23;19913;-94
2023/06/14 01:21:57;;;;;;;;;;;19.70;51.20;;;;;;6072236;23;19919;-95
2023/06/14 01:24:31;;;;;;;;;;;19.70;51.30;;;;;;6096842;23;20367;-94
2023/06/14 01:27:13;;;;;;;;;;;19.70;51.30;;;;;;6095878;23;19933;-94
2023/06/14 01:29:56;;;;;;;;;;;19.80;51.40;;;;;;6073509;23;19916;-95
2023/06/14 01:32:53;;;;;;;;;;;19.60;51.30;;;;;;6072758;23;19918;-95
2023/06/14 01:35:28;;;;;;;;;;;19.70;51.40;;;;;;6019411;23;20395;-94
2023/06/14 01:38:13;;;;;;;;;;;19.70;51.30;;;;;;6013859;23;19941;-93
2023/06/14 01:41:08;;;;;;;;;;;19.60;51.30;;;;;;6013414;23;19945;-93
2023/06/14 01:43:56;;;;;;;;;;;19.60;51.40;;;;;;6014133;23;20351;-95
2023/06/14 01:46:25;;;;;;;;;;;19.60;51.40;;;;;;6013362;23;20007;-95
2023/06/14 01:48:53;;;;;;;;;;;19.50;51.40;;;;;;5990683;23;20393;-94
2023/06/14 01:51:21;;;;;;;;;;;19.60;51.40;;;;;;5990179;23;20247;-95
2023/06/14 01:53:50;;;;;;;;;;;19.60;51.40;;;;;;6014420;23;19906;-94
2023/06/14 01:56:38;;;;;;;;;;;19.50;51.40;;;;;;5990535;23;19917;-95
2023/06/14 01:59:22;;;;;;;;;;;19.50;51.40;;;;;;6012365;23;19910;-95
2023/06/14 02:01:47;;;;;;;;;;;19.60;51.40;;;;;;6013200;23;19945;-93
2023/06/14 02:04:13;;;;;;;;;;;19.60;51.50;;;;;;5990333;23;19925;-94
2023/06/14 02:06:41;;;;;;;;;;;19.50;51.50;;;;;;5989715;23;19918;-94
2023/06/14 02:09:07;;;;;;;;;;;19.50;51.50;;;;;;6013472;23;20016;-96
2023/06/14 02:11:58;;;;;;;;;;;19.50;51.50;;;;;;6048052;23;20319;-94
2023/06/14 02:14:27;;;;;;;;;;;20.10;51.80;;;;;;6092836;23;19912;-94
2023/06/14 02:16:56;;;;;;;;;;;19.50;51.70;;;;;;6095806;23;19965;-95
2023/06/14 02:19:21;;;;;;;;;;;19.50;51.50;;;;;;6071914;23;19917;-95
2023/06/14 02:22:00;;;;;;;;;;;19.50;51.60;;;;;;6095889;23;19905;-95
2023/06/14 02:24:28;;;;;;;;;;;19.50;51.60;;;;;;6088279;23;19933;-96
2023/06/14 02:29:40;;;;;;;;;;;19.30;51.50;;;;;;6097194;23;19905;-95
2023/06/14 02:32:17;;;;;;;;;;;19.50;51.70;;;;;;6093065;23;20116;-94
2023/06/14 02:34:43;;;;;;;;;;;19.50;51.70;;;;;;6095961;23;19906;-95
2023/06/14 02:37:09;;;;;;;;;;;19.50;51.70;;;;;;6071076;23;20072;-95
2023/06/14 02:39:48;;;;;;;;;;;19.40;51.60;;;;;;6071180;23;19909;-95
2023/06/14 02:42:17;;;;;;;;;;;19.40;51.70;;;;;;6071025;23;19921;-95
2023/06/14 02:44:43;;;;;;;;;;;19.50;51.70;;;;;;6095387;23;19905;-95
2023/06/14 02:47:14;;;;;;;;;;;19.40;51.70;;;;;;6071577;23;20319;-95
2023/06/14 02:49:41;;;;;;;;;;;19.40;51.70;;;;;;6096878;23;19991;-95
2023/06/14 02:52:09;;;;;;;;;;;19.40;51.70;;;;;;6094433;23;19995;-95
2023/06/14 02:54:35;;;;;;;;;;;19.40;51.70;;;;;;6095634;23;20220;-94
2023/06/14 02:59:56;;;;;;;;;;;19.40;51.70;;;;;;6096765;23;19916;-95
2023/06/14 03:02:22;;;;;;;;;;;19.40;51.80;;;;;;6091590;23;19910;-96
2023/06/14 03:05:01;;;;;;;;;;;19.40;51.80;;;;;;6095856;23;19906;-95
2023/06/14 03:07:35;;;;;;;;;;;19.40;51.80;;;;;;6071396;23;20301;-96
2023/06/14 03:10:10;;;;;;;;;;;19.30;51.70;;;;;;6071045;23;19925;-96
2023/06/14 03:12:39;;;;;;;;;;;19.60;51.90;;;;;;6094974;23;20315;-96
2023/06/14 03:15:27;;;;;;;;;;;19.30;51.80;;;;;;6095572;23;19905;-95
2023/06/14 03:17:53;;;;;;;;;;;19.30;51.80;;;;;;6095190;23;19905;-95
2023/06/14 03:20:19;;;;;;;;;;;19.30;51.90;;;;;;6093022;23;19988;-95
2023/06/14 03:22:56;;;;;;;;;;;19.30;51.80;;;;;;6069115;23;19917;-96
2023/06/14 03:25:25;;;;;;;;;;;19.40;51.90;;;;;;6096098;23;19905;-95
2023/06/14 03:27:51;;;;;;;;;;;19.30;51.90;;;;;;6095573;23;19961;-96
2023/06/14 03:30:26;;;;;;;;;;;19.30;51.90;;;;;;6095117;23;19914;-95
2023/06/14 03:32:55;;;;;;;;;;;19.30;52.00;;;;;;6096143;23;19917;-95
2023/06/14 03:35:56;;;;;;;;;;;19.30;51.90;;;;;;6094775;23;19909;-96
2023/06/14 03:41:26;;;;;;;;;;;19.30;52.00;;;;;;6007485;23;20274;-96
2023/06/14 03:43:56;;;;;;;;;;;19.30;52.00;;;;;;5984104;23;20388;-94
2023/06/14 03:46:42;;;;;;;;;;;19.30;52.00;;;;;;5984954;23;19906;-96
2023/06/14 03:49:26;;;;;;;;;;;;;;;;;;;;;
2023/06/14 03:52:19;;;;;;;;;;;19.30;52.10;;;;;;5968825;23;20009;-96
2023/06/14 03:54:50;;;;;;;;;;;19.80;52.40;;;;;;6004371;23;20407;-96
2023/06/14 03:57:18;;;;;;;;;;;19.20;52.10;;;;;;5977726;23;19907;-96
2023/06/14 03:59:59;;;;;;;;;;;19.20;52.10;;;;;;5984352;23;19906;-96
2023/06/14 04:02:54;;;;;;;;;;;19.20;52.20;;;;;;5986438;23;19910;-95
2023/06/14 04:05:28;;;;;;;;;;;19.20;52.20;;;;;;5990834;23;19918;-95
2023/06/14 04:08:14;;;;;;;;;;;19.30;52.10;;;;;;5985249;23;19907;-94
2023/06/14 04:11:02;;;;;;;;;;;19.20;52.00;;;;;;5986024;23;19914;-95
2023/06/14 04:13:31;;;;;;;;;;;19.20;51.80;;;;;;5984501;23;19932;-95
2023/06/14 04:16:03;;;;;;;;;;;19.20;51.60;;;;;;5983169;23;20009;-95
2023/06/14 04:18:28;;;;;;;;;;;19.20;51.60;;;;;;6041893;23;20323;-94
2023/06/14 04:20:56;;;;;;;;;;;19.20;51.50;;;;;;6095080;23;19916;-95
2023/06/14 04:23:32;;;;;;;;;;;19.20;51.50;;;;;;6094528;23;19991;-93
2023/06/14 04:26:02;;;;;;;;;;;19.20;51.50;;;;;;6095416;23;19940;-95
2023/06/14 04:28:45;;;;;;;;;;;19.20;51.60;;;;;;6095157;23;19906;-95
2023/06/14 04:31:14;;;;;;;;;;;19.20;51.60;;;;;;6092391;23;20271;-93
2023/06/14 04:33:43;;;;;;;;;;;19.20;51.50;;;;;;6047626;23;19914;-95
2023/06/14 04:36:41;;;;;;;;;;;19.20;51.50;;;;;;6070933;23;20371;-95
2023/06/14 04:42:11;;;;;;;;;;;19.20;51.50;;;;;;6096773;23;19917;-95
2023/06/14 04:44:39;;;;;;;;;;;19.20;51.50;;;;;;6072552;23;19909;-94
2023/06/14 04:47:06;;;;;;;;;;;19.20;51.60;;;;;;6072284;23;19910;-94
2023/06/14 04:49:54;;;;;;;;;;;19.60;51.80;;;;;;6072219;23;19952;-94
2023/06/14 04:52:26;;;;;;;;;;;19.20;51.60;;;;;;6072063;23;19906;-93
2023/06/14 04:55:01;;;;;;;;;;;19.20;51.60;;;;;;6072423;23;19957;-95
2023/06/14 04:57:52;;;;;;;;;;;19.20;51.50;;;;;;6072079;23;19961;-96
2023/06/14 05:00:25;;;;;;;;;;;19.20;51.40;;;;;;6071738;23;19906;-95
2023/06/14 05:02:56;;;;;;;;;;;19.20;51.30;;;;;;5986232;23;19914;-93
2023/06/14 05:05:22;;;;;;;;;;;19.90;51.60;;;;;;5968239;23;19910;-96
2023/06/14 05:08:04;;;;;;;;;;;19.10;51.10;;;;;;5989289;23;20395;-95
2023/06/14 05:10:30;;;;;;;;;;;19.20;51.20;;;;;;5985680;23;19910;-88
2023/06/14 05:12:56;;;;;;;;;;;19.20;50.90;;;;;;6007456;23;19981;-87
2023/06/14 05:15:25;;;;;;;;;;;19.20;50.80;;;;;;5984604;23;19994;-88
2023/06/14 05:17:54;;;;;;;;;;;19.20;50.60;;;;;;5984876;23;19981;-88
2023/06/14 05:20:31;;;;;;;;;;;19.20;50.50;;;;;;5984474;23;19918;-88
2023/06/14 05:22:57;;;;;;;;;;;19.30;50.90;;;;;;5984571;23;19922;-88
2023/06/14 05:25:23;;;;;;;;;;;19.20;50.40;;;;;;5983999;23;19906;-86
2023/06/14 05:27:49;;;;;;;;;;;19.20;50.40;;;;;;6007754;23;19929;-86
2023/06/14 05:30:15;;;;;;;;;;;19.30;50.30;;;;;;5983644;23;19978;-88
2023/06/14 05:32:41;;;;;;;;;;;19.20;50.20;;;;;;6003703;23;19926;-87
2023/06/14 05:35:26;;;;;;;;;;;19.20;50.20;;;;;;6075403;23;20343;-88
2023/06/14 05:37:53;;;;;;;;;;;19.30;50.10;;;;;;6099349;23;19904;-88
2023/06/14 05:43:11;;;;;;;;;;;19.20;50.00;;;;;;6036947;23;19918;-96
2023/06/14 05:45:39;;;;;;;;;;;19.30;50.00;;;;;;6013978;23;19992;-96
2023/06/14 05:48:22;;;;;;;;;;;19.30;50.00;;;;;;6018455;23;19910;-96
2023/06/14 05:50:48;;;;;;;;;;;20.20;50.40;;;;;;6017651;23;19910;-96
2023/06/14 05:53:14;;;;;;;;;;;19.30;49.70;;;;;;5992185;23;19910;-95
2023/06/14 05:55:40;;;;;;;;;;;19.40;49.80;;;;;;6018186;23;19913;-95
2023/06/14 05:58:05;;;;;;;;;;;19.40;49.80;;;;;;6021888;23;19906;-92
2023/06/14 06:00:31;;;;;;;;;;;19.40;49.80;;;;;;6013984;23;19917;-95
2023/06/14 06:03:03;;;;;;;;;;;19.40;50.00;;;;;;6013966;23;19925;-92
2023/06/14 06:05:51;;;;;;;;;;;19.40;50.00;;;;;;6036966;23;19906;-95
2023/06/14 06:08:17;;;;;;;;;;;19.50;49.90;;;;;;6037462;23;19953;-96
2023/06/14 06:10:43;;;;;;;;;;;19.40;49.80;;;;;;6038826;23;19950;-92
2023/06/14 06:13:21;;;;;;;;;;;19.50;50.00;;;;;;6016141;23;19910;-94
2023/06/14 06:16:13;;;;;;;;;;;19.40;49.80;;;;;;6037085;23;19918;-96
2023/06/14 06:18:38;;;;;;;;;;;19.50;49.90;;;;;;6026548;23;19912;-96
2023/06/14 06:21:07;;;;;;;;;;;19.50;49.80;;;;;;6114568;23;20227;-94
2023/06/14 06:23:33;;;;;;;;;;;19.50;49.90;;;;;;6098865;23;20485;-96
2023/06/14 06:26:18;;;;;;;;;;;19.60;49.80;;;;;;6074891;23;19909;-96
2023/06/14 06:28:46;;;;;;;;;;;19.40;49.60;;;;;;6099961;23;19937;-96
2023/06/14 06:31:15;;;;;;;;;;;19.70;50.50;;;;;;6099979;23;20234;-95
2023/06/14 06:34:10;;;;;;;;;;;19.60;49.80;;;;;;6077312;23;19940;-96
2023/06/14 06:36:42;;;;;;;;;;;19.70;49.80;;;;;;6101622;23;19905;-96
2023/06/14 06:39:27;;;;;;;;;;;19.70;49.90;;;;;;6077529;23;19916;-96
2023/06/14 06:41:53;;;;;;;;;;;19.70;49.70;;;;;;6099216;23;19905;-96
2023/06/14 06:44:31;;;;;;;;;;;19.80;49.80;;;;;;6076904;23;19920;-95
2023/06/14 06:46:57;;;;;;;;;;;19.80;49.80;;;;;;6101057;23;19909;-96
2023/06/14 06:49:24;;;;;;;;;;;19.80;49.70;;;;;;6099068;23;20242;-96
2023/06/14 06:52:23;;;;;;;;;;;19.80;49.70;;;;;;6098849;23;19905;-94
2023/06/14 06:54:55;;;;;;;;;;;19.90;49.80;;;;;;5956003;24;19907;-96
2023/06/14 06:57:52;;;;;;;;;;;19.90;49.70;;;;;;5934908;24;19910;-96
2023/06/14 07:00:53;;;;;;;;;;;20.00;49.80;;;;;;5956375;24;19914;-96
2023/06/14 07:03:21;;;;;;;;;;;20.00;49.80;;;;;;5975453;24;19915;-92
2023/06/14 07:05:47;;;;;;;;;;;20.00;49.70;;;;;;5956153;24;20351;-94
2023/06/14 07:08:22;;;;;;;;;;;20.00;50.20;;;;;;5950917;24;19910;-94
2023/06/14 07:11:04;;;;;;;;;;;20.10;49.90;;;;;;5933085;24;19911;-94
2023/06/14 07:13:35;;;;;;;;;;;20.10;49.90;;;;;;5956814;24;19914;-94
2023/06/14 07:16:18;;;;;;;;;;;20.20;49.80;;;;;;5932095;24;19942;-96
2023/06/14 07:18:43;;;;;;;;;;;20.20;49.80;;;;;;5956558;24;19911;-93
2023/06/14 07:21:09;;;;;;;;;;;20.20;49.80;;;;;;5955791;24;19951;-96
2023/06/14 07:23:38;;;;;;;;;;;20.30;49.90;;;;;;5956519;24;19918;-93
2023/06/14 07:26:06;;;;;;;;;;;20.30;49.90;;;;;;5933710;24;20348;-92
2023/06/14 07:28:35;;;;;;;;;;;20.40;49.80;;;;;;5955971;24;19936;-94
2023/06/14 07:31:01;;;;;;;;;;;20.40;49.80;;;;;;6061905;23;19909;-95
2023/06/14 07:33:35;;;;;;;;;;;20.50;49.70;;;;;;6098064;23;19917;-96
2023/06/14 07:36:01;;;;;;;;;;;20.50;49.50;;;;;;6070851;23;19913;-94
2023/06/14 07:38:29;;;;;;;;;;;20.50;49.30;;;;;;6099424;23;19916;-94
2023/06/14 07:40:55;;;;;;;;;;;20.60;49.10;;;;;;6098648;23;20334;-94
2023/06/14 07:43:28;;;;;;;;;;;20.50;49.30;;;;;;6075980;23;19913;-92
2023/06/14 07:45:56;;;;;;;;;;;20.60;48.50;;;;;;6074881;23;20039;-95
2023/06/14 07:48:22;;;;;;;;;;;20.70;48.20;;;;;;6075496;23;19913;-92
2023/06/14 07:50:48;;;;;;;;;;;20.70;48.00;;;;;;6098883;23;19912;-94
2023/06/14 07:53:20;;;;;;;;;;;20.70;48.00;;;;;;6099599;23;19909;-96
2023/06/14 07:55:47;;;;;;;;;;;20.70;48.10;;;;;;6098862;23;20584;-96
2023/06/14 07:58:12;;;;;;;;;;;20.80;48.30;;;;;;6098805;23;19905;-96
2023/06/14 08:00:39;;;;;;;;;;;20.80;48.30;;;;;;6099590;23;19904;-96
2023/06/14 08:03:11;;;;;;;;;;;20.90;48.30;;;;;;6075395;23;19913;-95
2023/06/14 08:05:37;;;;;;;;;;;20.80;48.30;;;;;;6096276;23;19919;-96
2023/06/14 08:08:05;;;;;;;;;;;21.00;48.50;;;;;;6099909;23;19933;-96
2023/06/14 08:10:31;;;;;;;;;;;21.00;48.30;;;;;;6099532;23;19908;-96
2023/06/14 08:13:12;;;;;;;;;;;21.00;48.20;;;;;;6099124;23;19909;-94
2023/06/14 08:15:43;;;;;;;;;;;21.00;48.30;;;;;;6075342;23;19929;-96
2023/06/14 08:18:09;;;;;;;;;;;21.10;48.50;;;;;;6101787;23;20027;-95
2023/06/14 08:20:36;;;;;;;;;;;21.10;48.60;;;;;;6101139;23;19956;-94
2023/06/14 08:23:04;;;;;;;;;;;21.20;48.70;;;;;;6100857;23;19908;-93
2023/06/14 08:25:35;;;;;;;;;;;21.30;48.70;;;;;;6100765;23;19905;-94
2023/06/14 08:28:04;;;;;;;;;;;21.20;48.30;;;;;;6101852;23;19905;-93
2023/06/14 08:30:36;;;;;;;;;;;21.20;48.50;;;;;;6076673;23;19909;-94
2023/06/14 08:33:02;;;;;;;;;;;21.30;48.20;;;;;;6076922;23;19924;-94
2023/06/14 08:35:27;;;;;;;;;;;21.30;48.30;;;;;;6076308;23;19909;-92
2023/06/14 08:37:56;;;;;;;;;;;21.30;48.20;;;;;;6100603;23;19928;-94
2023/06/14 08:40:32;;;;;;;;;;;21.30;48.40;;;;;;6100180;23;19905;-96
2023/06/14 08:43:00;;;;;;;;;;;21.30;48.40;;;;;;6079122;23;19971;-94
2023/06/14 08:45:26;;;;;;;;;;;21.40;48.50;;;;;;6100825;23;19905;-95
2023/06/14 08:47:52;;;;;;;;;;;21.40;48.30;;;;;;6100966;23;19992;-95
2023/06/14 08:50:31;;;;;;;;;;;21.40;48.30;;;;;;6100928;23;19912;-94
2023/06/14 08:53:10;;;;;;;;;;;21.50;48.00;;;;;;6100398;23;19921;-95
2023/06/14 08:55:45;;;;;;;;;;;21.50;48.00;;;;;;6077815;23;19909;-96
2023/06/14 08:58:14;;;;;;;;;;;21.50;47.90;;;;;;6100049;23;19956;-94
2023/06/14 09:00:42;;;;;;;;;;;21.50;48.00;;;;;;6101005;23;19931;-93
2023/06/14 09:03:13;;;;;;;;;;;21.50;47.90;;;;;;6100949;23;20365;-96
2023/06/14 09:05:42;;;;;;;;;;;21.50;47.80;;;;;;6102164;23;19905;-95
2023/06/14 09:08:11;;;;;;;;;;;21.60;47.80;;;;;;6074910;23;19913;-93
2023/06/14 09:10:37;;;;;;;;;;;21.60;47.60;;;;;;6100030;23;20346;-95
2023/06/14 09:13:22;;;;;;;;;;;21.60;47.50;;;;;;6068652;23;19924;-94
2023/06/14 09:15:48;;;;;;;;;;;21.70;47.60;;;;;;6100937;23;19909;-95
2023/06/14 09:18:14;;;;;;;;;;;21.70;47.30;;;;;;6100929;23;19912;-96
2023/06/14 09:20:40;;;;;;;;;;;21.80;47.00;;;;;;6100495;23;19912;-94
2023/06/14 09:23:09;;;;;;;;;;;21.80;47.20;;;;;;6100640;23;19960;-95
2023/06/14 09:26:04;;;;;;;;;;;21.80;46.80;;;;;;6077650;23;19960;-96
2023/06/14 09:28:30;;;;;;;;;;;21.80;46.70;;;;;;5956841;24;19955;-94
2023/06/14 09:31:15;;;;;;;;;;;21.80;46.80;;;;;;5956567;24;19911;-95
2023/06/14 09:33:47;;;;;;;;;;;21.80;46.90;;;;;;5956203;24;19970;-96
2023/06/14 09:36:17;;;;;;;;;;;21.90;46.70;;;;;;5934882;24;19911;-95
2023/06/14 09:38:51;;;;;;;;;;;22.00;46.70;;;;;;5933898;24;19911;-95
2023/06/14 09:41:33;;;;;;;;;;;21.90;46.40;;;;;;5957269;24;19906;-96
2023/06/14 09:44:07;;;;;;;;;;;21.90;46.50;;;;;;5934156;24;19922;-95
2023/06/14 09:46:58;;;;;;;;;;;22.00;46.50;;;;;;5957382;24;19906;-93
2023/06/14 09:49:32;;;;;;;;;;;22.00;46.40;;;;;;5957209;24;20341;-96
2023/06/14 09:52:09;;;;;;;;;;;22.00;46.00;;;;;;5957333;24;19963;-96
2023/06/14 09:54:38;;;;;;;;;;;22.50;45.90;;;;;;5957080;24;19918;-94
2023/06/14 09:57:29;;;;;;;;;;;22.00;45.60;;;;;;5935814;24;19993;-96
2023/06/14 09:59:58;;;;;;;;;;;22.00;45.10;;;;;;5967960;24;19910;-93
2023/06/14 10:02:27;;;;;;;;;;;22.00;44.70;;;;;;5957293;24;19930;-94
2023/06/14 10:05:11;;;;;;;;;;;22.00;44.70;;;;;;6027383;23;19908;-95
2023/06/14 10:07:55;;;;;;;;;;;22.00;44.50;;;;;;6100536;23;20000;-96
2023/06/14 10:10:21;;;;;;;;;;;22.00;44.50;;;;;;6100786;23;19905;-90
2023/06/14 10:12:47;;;;;;;;;;;22.00;44.70;;;;;;6099382;23;19913;-90
2023/06/14 10:15:39;;;;;;;;;;;22.00;44.40;;;;;;6099463;23;19928;-90
2023/06/14 10:18:25;;;;;;;;;;;22.00;44.10;;;;;;6100356;23;19944;-92
2023/06/14 10:21:09;;;;;;;;;;;22.00;44.50;;;;;;6097201;23;19975;-89
2023/06/14 10:23:37;;;;;;;;;;;22.00;44.40;;;;;;6098860;23;19913;-89
2023/06/14 10:26:03;;;;;;;;;;;22.00;44.40;;;;;;6074713;23;20243;-90
2023/06/14 10:28:48;;;;;;;;;;;22.00;44.60;;;;;;6099803;23;19905;-88
2023/06/14 10:31:34;;;;;;;;;;;22.00;44.80;;;;;;6098552;23;19905;-88
2023/06/14 10:33:59;;;;;;;;;;;21.90;44.80;;;;;;6098841;23;19944;-89
2023/06/14 10:36:45;;;;;;;;;;;22.00;44.70;;;;;;6074757;23;19993;-89
2023/06/14 10:39:31;;;;;;;;;;;22.00;45.80;;;;;;6099092;23;19911;-90
2023/06/14 10:41:57;;;;;;;;;;;21.90;45.40;;;;;;6097531;23;19909;-87
2023/06/14 10:44:22;;;;;;;;;;;21.90;45.60;;;;;;6075053;23;19920;-89
2023/06/14 10:46:54;;;;;;;;;;;21.90;45.40;;;;;;6099611;23;19912;-88
2023/06/14 10:49:40;;;;;;;;;;;21.80;45.50;;;;;;6073878;23;19913;-91
2023/06/14 10:52:11;;;;;;;;;;;21.80;45.20;;;;;;6075875;23;19940;-89
2023/06/14 10:54:37;;;;;;;;;;;21.80;45.70;;;;;;6076128;23;19909;-92
2023/06/14 10:57:23;;;;;;;;;;;21.80;45.90;;;;;;6098863;23;19954;-88
2023/06/14 10:59:49;;;;;;;;;;;21.80;46.00;;;;;;6097223;23;19905;-89
2023/06/14 11:02:27;;;;;;;;;;;21.70;45.40;;;;;;6099194;23;19905;-89
2023/06/14 11:04:53;;;;;;;;;;;21.70;45.70;;;;;;6099125;23;19905;-88
2023/06/14 11:07:37;;;;;;;;;;;21.60;45.60;;;;;;6099238;23;19992;-87
2023/06/14 11:10:10;;;;;;;;;;;21.60;45.30;;;;;;6098785;23;19905;-89
2023/06/14 11:12:36;;;;;;;;;;;21.60;45.50;;;;;;6099716;23;19912;-87
2023/06/14 11:15:02;;;;;;;;;;;21.60;45.20;;;;;;6075608;23;19964;-87
2023/06/14 11:17:30;;;;;;;;;;;21.60;45.60;;;;;;6076431;23;19909;-90
2023/06/14 11:20:31;;;;;;;;;;;21.60;45.80;;;;;;6075208;23;20276;-89
2023/06/14 11:23:16;;;;;;;;;;;21.50;45.50;;;;;;6099252;23;19916;-86
2023/06/14 11:25:42;;;;;;;;;;;21.50;45.30;;;;;;6101215;23;19970;-91
2023/06/14 11:28:08;;;;;;;;;;;21.50;45.10;;;;;;6100979;23;20358;-90
2023/06/14 11:30:53;;;;;;;;;;;21.50;46.70;;;;;;6074944;23;19988;-89
2023/06/14 11:33:20;;;;;;;;;;;21.50;46.20;;;;;;6099462;23;19913;-87
2023/06/14 11:35:45;;;;;;;;;;;21.50;46.00;;;;;;6074971;23;19915;-87
2023/06/14 11:38:31;;;;;;;;;;;21.50;46.50;;;;;;6074800;23;20335;-90
2023/06/14 11:41:00;;;;;;;;;;;21.50;46.20;;;;;;6099116;23;19963;-91
2023/06/14 11:43:26;;;;;;;;;;;21.40;45.80;;;;;;6099682;23;19909;-87
2023/06/14 11:46:12;;;;;;;;;;;21.40;45.50;;;;;;6075159;23;19909;-88
2023/06/14 11:48:42;;;;;;;;;;;21.40;45.60;;;;;;6099348;23;19909;-88
2023/06/14 11:51:28;;;;;;;;;;;21.40;45.40;;;;;;6095239;23;20027;-90
2023/06/14 11:53:53;;;;;;;;;;;21.40;45.40;;;;;;6101532;23;19960;-90
2023/06/14 11:56:19;;;;;;;;;;;21.40;44.80;;;;;;6101128;23;19909;-87
2023/06/14 11:58:45;;;;;;;;;;;21.30;44.60;;;;;;6100927;23;20272;-90
2023/06/14 12:01:15;;;;;;;;;;;21.30;44.80;;;;;;6101256;23;19936;-90
2023/06/14 12:03:46;;;;;;;;;;;21.40;46.30;;;;;;6077451;23;20292;-90
2023/06/14 12:06:12;;;;;;;;;;;21.40;45.80;;;;;;6076830;23;19909;-90
2023/06/14 12:08:41;;;;;;;;;;;21.40;46.00;;;;;;6100826;23;20401;-87
2023/06/14 12:11:26;;;;;;;;;;;21.30;45.60;;;;;;6077434;23;19909;-87
2023/06/14 12:13:52;;;;;;;;;;;21.30;45.40;;;;;;6099822;23;19909;-90
2023/06/14 12:16:17;;;;;;;;;;;21.30;44.90;;;;;;6102601;23;19909;-92
2023/06/14 12:18:43;;;;;;;;;;;21.30;44.80;;;;;;6101300;23;19909;-91
2023/06/14 12:21:29;;;;;;;;;;;21.30;44.80;;;;;;6078299;23;19909;-91
2023/06/14 12:23:55;;;;;;;;;;;21.20;45.00;;;;;;6102350;23;19937;-91
2023/06/14 12:26:21;;;;;;;;;;;21.30;46.40;;;;;;6078103;23;19909;-91
2023/06/14 12:28:48;;;;;;;;;;;21.30;46.70;;;;;;6101371;23;20223;-90
2023/06/14 12:31:15;;;;;;;;;;;21.30;46.30;;;;;;6076517;23;19909;-89
2023/06/14 12:33:41;;;;;;;;;;;21.30;45.80;;;;;;6077518;23;20350;-91
2023/06/14 12:36:07;;;;;;;;;;;21.30;45.70;;;;;;6078016;23;20326;-89
2023/06/14 12:38:41;;;;;;;;;;;21.30;45.20;;;;;;6078220;23;19936;-91
2023/06/14 12:41:07;;;;;;;;;;;21.20;45.60;;;;;;6078597;23;19909;-88
2023/06/14 12:43:53;;;;;;;;;;;21.20;46.00;;;;;;6078342;23;19940;-91
2023/06/14 12:46:18;;;;;;;;;;;21.30;45.90;;;;;;6102270;23;19905;-90
2023/06/14 12:48:44;;;;;;;;;;;21.30;46.10;;;;;;6102007;23;19928;-88
2023/06/14 12:51:09;;;;;;;;;;;21.20;45.70;;;;;;6101279;23;19983;-89
2023/06/14 12:53:35;;;;;;;;;;;21.20;45.80;;;;;;6100694;23;20087;-90
2023/06/14 12:56:01;;;;;;;;;;;21.20;45.50;;;;;;6076408;23;19917;-88
2023/06/14 12:58:27;;;;;;;;;;;21.20;45.50;;;;;;6077821;23;19909;-90
2023/06/14 13:00:52;;;;;;;;;;;21.10;45.40;;;;;;6100609;23;19905;-89
2023/06/14 13:03:18;;;;;;;;;;;21.20;45.60;;;;;;6076502;23;19920;-90
2023/06/14 13:05:45;;;;;;;;;;;21.10;45.50;;;;;;6075686;23;20331;-92
2023/06/14 13:08:11;;;;;;;;;;;21.10;45.20;;;;;;6075715;23;19916;-89
2023/06/14 13:10:39;;;;;;;;;;;21.10;45.80;;;;;;6075664;23;20453;-90
2023/06/14 13:13:04;;;;;;;;;;;21.10;45.80;;;;;;6074096;23;19908;-90
2023/06/14 13:15:30;;;;;;;;;;;21.20;45.70;;;;;;6099756;23;19980;-92
2023/06/14 13:17:56;;;;;;;;;;;21.20;45.70;;;;;;6098793;23;19905;-88
2023/06/14 13:20:21;;;;;;;;;;;21.20;45.90;;;;;;6073233;23;19944;-88
2023/06/14 13:22:47;;;;;;;;;;;21.10;45.40;;;;;;6075290;23;20243;-90
2023/06/14 13:25:15;;;;;;;;;;;21.10;45.30;;;;;;6100040;23;19913;-92
2023/06/14 13:27:41;;;;;;;;;;;21.20;45.10;;;;;;6099559;23;19913;-90
2023/06/14 13:30:07;;;;;;;;;;;21.10;45.20;;;;;;6099140;23;20339;-92
2023/06/14 13:32:33;;;;;;;;;;;21.10;45.30;;;;;;6100469;23;19992;-88
2023/06/14 13:35:19;;;;;;;;;;;21.20;45.70;;;;;;6075932;23;19909;-93
2023/06/14 13:37:44;;;;;;;;;;;21.10;45.50;;;;;;6104174;23;20445;-92
2023/06/14 13:40:30;;;;;;;;;;;21.10;45.40;;;;;;6100024;23;19959;-89
2023/06/14 13:42:56;;;;;;;;;;;21.10;45.70;;;;;;6100528;23;19916;-91
2023/06/14 13:45:22;;;;;;;;;;;21.10;45.20;;;;;;6075852;23;19909;-90
2023/06/14 13:47:48;;;;;;;;;;;21.10;45.30;;;;;;6076751;23;20327;-88
2023/06/14 13:50:15;;;;;;;;;;;21.10;45.30;;;;;;6075561;23;19916;-90
2023/06/14 13:52:40;;;;;;;;;;;21.10;45.30;;;;;;6075923;23;19915;-90
2023/06/14 13:55:07;;;;;;;;;;;21.10;44.60;;;;;;6100251;23;19941;-90
2023/06/14 13:57:33;;;;;;;;;;;21.00;45.40;;;;;;6075402;23;19933;-90
2023/06/14 14:00:01;;;;;;;;;;;21.10;45.50;;;;;;6076256;23;19909;-90
2023/06/14 14:02:28;;;;;;;;;;;21.10;45.30;;;;;;6100235;23;19905;-92
2023/06/14 14:04:54;;;;;;;;;;;21.10;45.60;;;;;;6075885;23;19909;-89
2023/06/14 14:07:21;;;;;;;;;;;21.10;45.50;;;;;;6099624;23;20013;-91
2023/06/14 14:09:47;;;;;;;;;;;21.10;45.30;;;;;;6100042;23;19909;-91
2023/06/14 14:12:34;;;;;;;;;;;21.10;45.30;;;;;;6075707;23;19996;-93
2023/06/14 14:14:59;;;;;;;;;;;21.10;45.10;;;;;;6103152;23;20338;-89
2023/06/14 14:17:28;;;;;;;;;;;21.10;45.90;;;;;;6074463;23;19959;-93
2023/06/14 14:19:55;;;;;;;;;;;21.10;46.00;;;;;;6099732;23;19905;-92
2023/06/14 14:22:20;;;;;;;;;;;21.10;46.00;;;;;;6075712;23;19995;-90
2023/06/14 14:24:47;;;;;;;;;;;21.10;45.80;;;;;;6074101;23;19944;-88
2023/06/14 14:27:12;;;;;;;;;;;21.10;46.00;;;;;;6098512;23;19905;-90
2023/06/14 14:29:38;;;;;;;;;;;21.10;45.50;;;;;;6075125;23;20030;-88
2023/06/14 14:32:05;;;;;;;;;;;21.00;45.40;;;;;;6070015;23;20294;-92
2023/06/14 14:34:31;;;;;;;;;;;21.00;45.20;;;;;;6047160;23;19917;-93
2023/06/14 14:36:57;;;;;;;;;;;21.00;45.10;;;;;;6071359;23;20385;-93
2023/06/14 14:39:23;;;;;;;;;;;21.10;45.60;;;;;;6071273;23;20239;-91
2023/06/14 14:41:50;;;;;;;;;;;21.00;45.40;;;;;;6070483;23;19905;-91
2023/06/14 14:44:15;;;;;;;;;;;21.00;45.60;;;;;;6047866;23;19947;-91
2023/06/14 14:46:41;;;;;;;;;;;21.00;45.50;;;;;;6072153;23;19909;-92
2023/06/14 14:49:07;;;;;;;;;;;21.00;45.50;;;;;;6042013;23;19909;-91
2023/06/14 14:51:33;;;;;;;;;;;21.00;45.80;;;;;;6070853;23;19981;-91
2023/06/14 14:53:58;;;;;;;;;;;21.10;46.10;;;;;;6047645;23;19993;-91
2023/06/14 14:56:25;;;;;;;;;;;21.00;45.80;;;;;;6046089;23;19913;-91
2023/06/14 14:58:57;;;;;;;;;;;21.00;45.80;;;;;;6071296;23;19905;-91
2023/06/14 15:01:27;;;;;;;;;;;21.00;45.80;;;;;;6046214;23;19965;-91